Time;durP1;ratioP1;P1;durP2;ratioP2;P2;SDS_P1;SDS_P2;PMS_P1;PMS_P2;Temp;Humidity;BMP_temperature;BMP_pressure;BME280_temperature;BME280_humidity;BME280_pressure;Samples;Min_cycle;Max_cycle;Signal;HPM_P1;HPM_P2
2022/11/15 00:00:56;;;;;;;;;;;;;;;;;;5136380;27;19923;-78
2022/11/15 00:03:26;;;;;;;;;;;;;;;;;;5133363;27;19969;-78
2022/11/15 00:05:53;;;;;;;;;;;;;;;;;;5115448;28;20006;-78
2022/11/15 00:08:25;;;;;;;;;;;;;;;;;;5125113;27;19931;-78
2022/11/15 00:10:56;;;;;;;;;;;;;;;;;;5138226;27;19966;-78
2022/11/15 00:13:23;;;;;;;;;;;;;;;;;;5142078;27;19991;-77
2022/11/15 00:15:49;;;;;;;;;;;;;;;;;;5135607;27;19970;-77
2022/11/15 00:18:16;;;;;;;;;;;;;;;;;;5141239;27;19966;-78
2022/11/15 00:20:46;;;;;;;;;;;;;;;;;;5139123;27;19982;-78
2022/11/15 00:23:16;;;;;;;;;;;;;;;;;;5141417;27;19931;-78
2022/11/15 00:25:45;;;;;;;;;;;;;;;;;;5139839;27;19979;-78
2022/11/15 00:28:16;;;;;;;;;;;;;;;;;;5137813;27;19946;-77
2022/11/15 00:30:45;;;;;;;;;;;;;;;;;;5141278;27;20401;-78
2022/11/15 00:33:11;;;;;;;;;;;;;;;;;;5139058;27;19977;-77
2022/11/15 00:35:41;;;;;;;;;;;;;;;;;;5137583;27;20006;-79
2022/11/15 00:38:10;;;;;;;;;;;;;;;;;;5116802;28;19931;-77
2022/11/15 00:40:39;;;;;;;;;;;;;;;;;;5114912;28;20018;-78
2022/11/15 00:43:06;;;;;;;;;;;;;;;;;;5134621;27;19928;-77
2022/11/15 00:45:36;;;;;;;;;;;;;;;;;;5134409;27;20006;-78
2022/11/15 00:48:06;;;;;;;;;;;;;;;;;;5144220;27;19966;-78
2022/11/15 00:50:35;;;;;;;;;;;;;;;;;;5154717;27;19934;-76
2022/11/15 00:53:02;;;;;;;;;;;;;;;;;;5154132;27;19994;-78
2022/11/15 00:55:28;;;;;;;;;;;;;;;;;;5150041;27;19924;-77
2022/11/15 00:57:57;;;;;;;;;;;;;;;;;;5147186;27;19970;-77
2022/11/15 01:00:23;;;;;;;;;;;;;;;;;;5137321;27;19923;-77
2022/11/15 01:02:54;;;;;;;;;;;;;;;;;;5143731;27;19923;-77
2022/11/15 01:05:20;;;;;;;;;;;;;;;;;;5144132;27;20002;-77
2022/11/15 01:07:47;;;;;;;;;;;;;;;;;;5145654;27;19974;-77
2022/11/15 01:10:13;;;;;;;;;;;;;;;;;;5139710;27;19986;-77
2022/11/15 01:12:40;;;;;;;;;;;;;;;;;;5135452;27;20014;-78
2022/11/15 01:15:06;;;;;;;;;;;;;;;;;;5136197;27;20468;-78
2022/11/15 01:17:33;;;;;;;;;;;;;;;;;;5135430;27;20007;-78
2022/11/15 01:20:01;;;;;;;;;;;;;;;;;;5135761;27;19971;-76
2022/11/15 01:22:27;;;;;;;;;;;;;;;;;;5135776;27;19965;-78
2022/11/15 01:24:53;;;;;;;;;;;;;;;;;;5145697;27;19950;-76
2022/11/15 01:27:20;;;;;;;;;;;;;;;;;;5159129;27;19927;-75
2022/11/15 01:29:46;;;;;;;;;;;;;;;;;;5158963;27;19966;-75
2022/11/15 01:32:13;;;;;;;;;;;;;;;;;;5142571;27;19971;-78
2022/11/15 01:34:39;;;;;;;;;;;;;;;;;;5142887;27;19955;-78
2022/11/15 01:37:07;;;;;;;;;;;;;;;;;;5140072;27;19966;-78
2022/11/15 01:39:34;;;;;;;;;;;;;;;;;;5139904;27;20007;-77
2022/11/15 01:42:00;;;;;;;;;;;;;;;;;;5135567;28;19930;-76
2022/11/15 01:44:32;;;;;;;;;;;;;;;;;;5135423;28;20010;-77
2022/11/15 01:47:00;;;;;;;;;;;;;;;;;;5135433;28;20018;-77
2022/11/15 01:49:28;;;;;;;;;;;;;;;;;;5135068;28;19973;-77
2022/11/15 01:51:54;;;;;;;;;;;;;;;;;;5135110;28;20044;-77
2022/11/15 01:54:24;;;;;;;;;;;;;;;;;;5135841;28;19978;-77
2022/11/15 01:56:52;;;;;;;;;;;;;;;;;;5135252;28;19924;-77
2022/11/15 01:59:19;;;;;;;;;;;;;;;;;;5137172;28;20428;-79
2022/11/15 02:01:45;;;;;;;;;;;;;;;;;;5137208;28;19986;-78
2022/11/15 02:04:13;;;;;;;;;;;;;;;;;;5135481;27;19955;-78
2022/11/15 02:06:40;;;;;;;;;;;;;;;;;;5153055;27;19924;-77
2022/11/15 02:09:07;;;;;;;;;;;;;;;;;;5151589;27;19966;-77
2022/11/15 02:11:35;;;;;;;;;;;;;;;;;;5153060;27;19924;-77
2022/11/15 02:14:02;;;;;;;;;;;;;;;;;;5152703;27;19974;-78
2022/11/15 02:16:36;;;;;;;;;;;;;;;;;;5141516;27;19980;-78
2022/11/15 02:19:06;;;;;;;;;;;;;;;;;;5139846;27;19992;-78
2022/11/15 02:21:35;;;;;;;;;;;;;;;;;;5139256;27;19923;-78
2022/11/15 02:24:15;;;;;;;;;;;;;;;;;;5139612;27;19970;-77
2022/11/15 02:26:59;;;;;;;;;;;;;;;;;;5138995;27;19924;-76
2022/11/15 02:29:29;;;;;;;;;;;;;;;;;;5139782;27;20011;-78
2022/11/15 02:32:01;;;;;;;;;;;;;;;;;;5139069;27;19970;-78
2022/11/15 02:34:31;;;;;;;;;;;;;;;;;;5140314;27;19955;-78
2022/11/15 02:37:02;;;;;;;;;;;;;;;;;;5139611;27;19978;-78
2022/11/15 02:39:31;;;;;;;;;;;;;;;;;;5140363;27;19935;-78
2022/11/15 02:42:01;;;;;;;;;;;;;;;;;;5140112;27;19928;-78
2022/11/15 02:44:28;;;;;;;;;;;;;;;;;;5139980;27;19974;-78
2022/11/15 02:47:16;;;;;;;;;;;;;;;;;;5140061;27;20350;-78
2022/11/15 02:49:45;;;;;;;;;;;;;;;;;;5139832;27;20301;-78
2022/11/15 02:52:15;;;;;;;;;;;;;;;;;;5138452;27;19987;-78
2022/11/15 02:54:41;;;;;;;;;;;;;;;;;;5140064;27;20014;-77
2022/11/15 02:57:13;;;;;;;;;;;;;;;;;;5139213;27;19963;-77
2022/11/15 03:00:00;;;;;;;;;;;;;;;;;;5139268;27;19963;-76
2022/11/15 03:02:35;;;;;;;;;;;;;;;;;;5130275;27;19963;-78
2022/11/15 03:05:05;;;;;;;;;;;;;;;;;;5120947;27;20010;-76
2022/11/15 03:07:36;;;;;;;;;;;;;;;;;;5123561;27;19970;-76
2022/11/15 03:10:06;;;;;;;;;;;;;;;;;;5138489;27;20002;-77
2022/11/15 03:12:37;;;;;;;;;;;;;;;;;;5138751;27;19963;-78
2022/11/15 03:15:06;;;;;;;;;;;;;;;;;;5136323;27;20381;-77
2022/11/15 03:17:36;;;;;;;;;;;;;;;;;;5136126;27;20018;-77
2022/11/15 03:20:05;;;;;;;;;;;;;;;;;;5136654;27;20400;-76
2022/11/15 03:22:34;;;;;;;;;;;;;;;;;;5137765;27;19930;-76
2022/11/15 03:25:03;;;;;;;;;;;;;;;;;;5142590;27;20278;-77
2022/11/15 03:27:32;;;;;;;;;;;;;;;;;;5151093;27;19927;-77
2022/11/15 03:30:00;;;;;;;;;;;;;;;;;;5145139;27;19973;-77
2022/11/15 03:32:29;;;;;;;;;;;;;;;;;;5138479;27;19924;-77
2022/11/15 03:34:58;;;;;;;;;;;;;;;;;;5138847;27;19982;-77
2022/11/15 03:37:31;;;;;;;;;;;;;;;;;;5140078;27;19923;-77
2022/11/15 03:39:59;;;;;;;;;;;;;;;;;;5121258;28;20034;-78
2022/11/15 03:42:29;;;;;;;;;;;;;;;;;;5120537;28;20347;-78
2022/11/15 03:44:59;;;;;;;;;;;;;;;;;;5142938;27;19923;-78
2022/11/15 03:47:28;;;;;;;;;;;;;;;;;;5142549;27;19962;-78
2022/11/15 03:49:58;;;;;;;;;;;;;;;;;;5140127;27;20027;-77
2022/11/15 03:52:24;;;;;;;;;;;;;;;;;;5137427;27;19924;-77
2022/11/15 03:54:53;;;;;;;;;;;;;;;;;;5137905;27;20026;-77
2022/11/15 03:57:20;;;;;;;;;;;;;;;;;;5137748;27;19959;-78
2022/11/15 03:59:46;;;;;;;;;;;;;;;;;;5136728;27;19930;-77
2022/11/15 04:02:13;;;;;;;;;;;;;;;;;;5134959;27;19959;-77
2022/11/15 04:04:40;;;;;;;;;;;;;;;;;;5119198;27;20463;-77
2022/11/15 04:07:06;;;;;;;;;;;;;;;;;;5118627;27;19982;-77
2022/11/15 04:09:33;;;;;;;;;;;;;;;;;;5135042;27;19930;-77
2022/11/15 04:12:01;;;;;;;;;;;;;;;;;;5134458;27;19939;-77
2022/11/15 04:14:27;;;;;;;;;;;;;;;;;;5134801;27;19971;-77
2022/11/15 04:16:53;;;;;;;;;;;;;;;;;;5134651;27;20006;-78
2022/11/15 04:24:48;;;;;;;;;;;;;;;;;;5134620;27;19930;-77
2022/11/15 04:27:16;;;;;;;;;;;;;;;;;;5133689;27;20065;-77
2022/11/15 04:29:42;;;;;;;;;;;;;;;;;;5134411;27;20006;-77
2022/11/15 04:32:09;;;;;;;;;;;;;;;;;;5133745;27;19985;-76
2022/11/15 04:34:35;;;;;;;;;;;;;;;;;;5134139;27;19950;-77
2022/11/15 04:37:15;;;;;;;;;;;;;;;;;;5134235;27;19985;-77
2022/11/15 04:39:42;;;;;;;;;;;;;;;;;;5113984;28;19924;-77
2022/11/15 04:42:09;;;;;;;;;;;;;;;;;;5129728;27;20014;-78
2022/11/15 04:44:37;;;;;;;;;;;;;;;;;;5134138;27;20010;-77
2022/11/15 04:47:04;;;;;;;;;;;;;;;;;;5133759;27;20014;-77
2022/11/15 04:49:30;;;;;;;;;;;;;;;;;;5134336;27;19933;-77
2022/11/15 04:51:57;;;;;;;;;;;;;;;;;;5134521;27;20010;-77
2022/11/15 04:54:23;;;;;;;;;;;;;;;;;;5136502;27;19967;-77
2022/11/15 04:56:49;;;;;;;;;;;;;;;;;;5137367;27;20022;-76
2022/11/15 04:59:16;;;;;;;;;;;;;;;;;;5138569;27;20011;-77
2022/11/15 05:01:44;;;;;;;;;;;;;;;;;;5140070;27;19966;-78
2022/11/15 05:04:21;;;;;;;;;;;;;;;;;;5133000;27;19975;-78
2022/11/15 05:06:48;;;;;;;;;;;;;;;;;;5138801;27;20018;-77
2022/11/15 05:09:15;;;;;;;;;;;;;;;;;;5139775;27;19923;-78
2022/11/15 05:11:41;;;;;;;;;;;;;;;;;;5139410;27;19970;-78
2022/11/15 05:14:08;;;;;;;;;;;;;;;;;;5139764;27;19923;-77
2022/11/15 05:16:34;;;;;;;;;;;;;;;;;;5140363;27;19966;-77
2022/11/15 05:19:03;;;;;;;;;;;;;;;;;;5140474;27;19963;-78
2022/11/15 05:21:30;;;;;;;;;;;;;;;;;;5145265;27;19987;-76
2022/11/15 05:23:56;;;;;;;;;;;;;;;;;;5159257;27;19927;-75
2022/11/15 05:26:22;;;;;;;;;;;;;;;;;;5158664;27;19919;-75
2022/11/15 05:28:59;;;;;;;;;;;;;;;;;;5146233;27;19930;-78
2022/11/15 05:33:52;;;;;;;;;;;;;;;;;;5134658;22;20343;-81
2022/11/15 05:36:22;;;;;;;;;;;;;;;;;;5115378;28;19955;-79
2022/11/15 05:38:49;;;;;;;;;;;;;;;;;;5098341;28;19924;-80
2022/11/15 05:41:16;;;;;;;;;;;;;;;;;;5100672;28;20294;-81
2022/11/15 05:43:44;;;;;;;;;;;;;;;;;;5098052;28;19971;-81
2022/11/15 05:46:10;;;;;;;;;;;;;;;;;;5115453;28;19924;-79
2022/11/15 05:48:38;;;;;;;;;;;;;;;;;;5118415;28;19924;-79
2022/11/15 05:51:05;;;;;;;;;;;;;;;;;;5118492;28;19959;-78
2022/11/15 05:53:33;;;;;;;;;;;;;;;;;;5118602;28;20009;-80
2022/11/15 05:56:00;;;;;;;;;;;;;;;;;;5118996;28;19927;-81
2022/11/15 05:58:28;;;;;;;;;;;;;;;;;;5118097;28;19935;-78
2022/11/15 06:00:55;;;;;;;;;;;;;;;;;;5118845;28;19923;-80
2022/11/15 06:03:22;;;;;;;;;;;;;;;;;;5115853;28;19935;-80
2022/11/15 06:05:48;;;;;;;;;;;;;;;;;;5096456;28;19924;-77
2022/11/15 06:08:15;;;;;;;;;;;;;;;;;;5093500;28;20015;-80
2022/11/15 06:10:43;;;;;;;;;;;;;;;;;;5112722;28;19931;-78
2022/11/15 06:13:09;;;;;;;;;;;;;;;;;;5113956;28;20431;-78
2022/11/15 06:15:36;;;;;;;;;;;;;;;;;;5112877;28;19970;-78
2022/11/15 06:18:02;;;;;;;;;;;;;;;;;;5113290;28;19924;-79
2022/11/15 06:20:30;;;;;;;;;;;;;;;;;;5113330;28;20020;-79
2022/11/15 06:22:59;;;;;;;;;;;;;;;;;;5112716;28;20389;-78
2022/11/15 06:25:26;;;;;;;;;;;;;;;;;;5113589;28;19967;-79
2022/11/15 06:27:54;;;;;;;;;;;;;;;;;;5112845;28;20014;-79
2022/11/15 06:30:20;;;;;;;;;;;;;;;;;;5112882;28;19967;-78
2022/11/15 06:32:47;;;;;;;;;;;;;;;;;;5112600;28;20006;-79
2022/11/15 06:35:14;;;;;;;;;;;;;;;;;;5113301;28;19955;-79
2022/11/15 06:37:40;;;;;;;;;;;;;;;;;;5113108;28;20026;-78
2022/11/15 06:40:07;;;;;;;;;;;;;;;;;;5113059;28;19988;-77
2022/11/15 06:42:34;;;;;;;;;;;;;;;;;;5112237;28;20402;-79
2022/11/15 06:45:01;;;;;;;;;;;;;;;;;;5112880;28;20026;-79
2022/11/15 06:47:28;;;;;;;;;;;;;;;;;;5112855;28;19923;-78
2022/11/15 06:49:54;;;;;;;;;;;;;;;;;;5113569;28;19976;-79
2022/11/15 06:52:21;;;;;;;;;;;;;;;;;;5116232;28;20015;-78
2022/11/15 06:54:48;;;;;;;;;;;;;;;;;;5116488;28;20293;-78
2022/11/15 06:57:14;;;;;;;;;;;;;;;;;;5116930;28;19924;-77
2022/11/15 06:59:41;;;;;;;;;;;;;;;;;;5117514;28;19924;-80
2022/11/15 07:02:12;;;;;;;;;;;;;;;;;;5116175;28;20014;-79
2022/11/15 07:04:38;;;;;;;;;;;;;;;;;;5116291;28;19981;-77
2022/11/15 07:07:05;;;;;;;;;;;;;;;;;;5116014;28;20417;-77
2022/11/15 07:09:31;;;;;;;;;;;;;;;;;;5116551;28;19924;-78
2022/11/15 07:11:58;;;;;;;;;;;;;;;;;;5116087;28;19924;-79
2022/11/15 07:14:24;;;;;;;;;;;;;;;;;;5116303;28;19924;-78
2022/11/15 07:16:51;;;;;;;;;;;;;;;;;;5118448;28;19958;-78
2022/11/15 07:19:19;;;;;;;;;;;;;;;;;;5118317;28;19924;-78
2022/11/15 07:21:45;;;;;;;;;;;;;;;;;;5118970;28;19968;-77
2022/11/15 07:24:12;;;;;;;;;;;;;;;;;;5118659;28;20030;-78
2022/11/15 07:26:38;;;;;;;;;;;;;;;;;;5118438;28;19977;-78
2022/11/15 07:29:04;;;;;;;;;;;;;;;;;;5118005;28;19930;-78
2022/11/15 07:31:31;;;;;;;;;;;;;;;;;;5117863;28;19934;-77
2022/11/15 07:33:57;;;;;;;;;;;;;;;;;;5117293;28;19924;-78
2022/11/15 07:36:26;;;;;;;;;;;;;;;;;;5117510;28;19969;-80
2022/11/15 07:38:52;;;;;;;;;;;;;;;;;;5116956;28;19923;-82
2022/11/15 07:41:19;;;;;;;;;;;;;;;;;;5116536;28;19982;-78
2022/11/15 07:43:45;;;;;;;;;;;;;;;;;;5116624;28;20012;-78
2022/11/15 07:46:12;;;;;;;;;;;;;;;;;;5116058;28;19924;-78
2022/11/15 07:48:39;;;;;;;;;;;;;;;;;;5118231;28;19924;-79
2022/11/15 07:51:06;;;;;;;;;;;;;;;;;;5116643;28;19930;-79
2022/11/15 07:53:34;;;;;;;;;;;;;;;;;;5119032;28;19924;-79
2022/11/15 07:56:01;;;;;;;;;;;;;;;;;;5116564;28;19974;-78
2022/11/15 07:58:27;;;;;;;;;;;;;;;;;;5115350;28;19974;-79
2022/11/15 08:00:54;;;;;;;;;;;;;;;;;;5115051;28;19943;-78
2022/11/15 08:03:20;;;;;;;;;;;;;;;;;;5111312;28;19971;-81
2022/11/15 08:05:50;;;;;;;;;;;;;;;;;;5104263;28;20412;-79
2022/11/15 08:08:17;;;;;;;;;;;;;;;;;;5114651;28;19974;-80
2022/11/15 08:10:45;;;;;;;;;;;;;;;;;;5113726;28;20015;-80
2022/11/15 08:13:13;;;;;;;;;;;;;;;;;;5113491;28;19975;-79
2022/11/15 08:15:39;;;;;;;;;;;;;;;;;;5113696;28;20489;-80
2022/11/15 08:18:07;;;;;;;;;;;;;;;;;;5114477;28;20019;-79
2022/11/15 08:20:33;;;;;;;;;;;;;;;;;;5114307;28;20008;-79
2022/11/15 08:23:01;;;;;;;;;;;;;;;;;;5115521;28;20366;-78
2022/11/15 08:25:28;;;;;;;;;;;;;;;;;;5116165;28;19967;-78
2022/11/15 08:27:57;;;;;;;;;;;;;;;;;;5118448;28;20561;-79
2022/11/15 08:30:23;;;;;;;;;;;;;;;;;;5118522;28;19975;-78
2022/11/15 08:32:50;;;;;;;;;;;;;;;;;;5112632;28;19924;-77
2022/11/15 08:35:17;;;;;;;;;;;;;;;;;;5110527;28;20425;-78
2022/11/15 08:37:44;;;;;;;;;;;;;;;;;;5107344;28;20010;-79
2022/11/15 08:40:11;;;;;;;;;;;;;;;;;;5112360;28;19928;-78
2022/11/15 08:42:38;;;;;;;;;;;;;;;;;;5106045;28;19924;-79
2022/11/15 08:45:06;;;;;;;;;;;;;;;;;;5110938;28;19969;-78
2022/11/15 08:47:33;;;;;;;;;;;;;;;;;;5104751;28;19975;-78
2022/11/15 08:50:00;;;;;;;;;;;;;;;;;;5107072;28;19924;-78
2022/11/15 08:52:28;;;;;;;;;;;;;;;;;;5106648;28;19924;-79
2022/11/15 08:54:57;;;;;;;;;;;;;;;;;;5104391;28;20015;-77
2022/11/15 08:57:25;;;;;;;;;;;;;;;;;;5102927;28;19924;-79
2022/11/15 08:59:52;;;;;;;;;;;;;;;;;;5106730;28;19923;-78
2022/11/15 09:02:20;;;;;;;;;;;;;;;;;;5129848;28;19935;-79
2022/11/15 09:04:47;;;;;;;;;;;;;;;;;;5125879;28;19969;-80
2022/11/15 09:07:14;;;;;;;;;;;;;;;;;;5119965;28;19965;-80
2022/11/15 09:09:41;;;;;;;;;;;;;;;;;;5120066;28;20010;-81
2022/11/15 09:12:08;;;;;;;;;;;;;;;;;;5118219;28;20467;-79
2022/11/15 09:14:34;;;;;;;;;;;;;;;;;;5133676;28;19924;-78
2022/11/15 09:17:03;;;;;;;;;;;;;;;;;;5133763;27;19925;-79
2022/11/15 09:19:31;;;;;;;;;;;;;;;;;;5131613;28;19924;-77
2022/11/15 09:21:59;;;;;;;;;;;;;;;;;;5136821;28;19928;-78
2022/11/15 09:24:26;;;;;;;;;;;;;;;;;;5135049;28;19927;-79
2022/11/15 09:26:52;;;;;;;;;;;;;;;;;;5121204;28;19935;-77
2022/11/15 09:29:19;;;;;;;;;;;;;;;;;;5111633;28;19924;-78
2022/11/15 09:31:46;;;;;;;;;;;;;;;;;;5124331;28;19924;-78
2022/11/15 09:34:12;;;;;;;;;;;;;;;;;;5134138;27;19973;-78
2022/11/15 09:36:40;;;;;;;;;;;;;;;;;;5133628;28;19969;-82
2022/11/15 09:39:07;;;;;;;;;;;;;;;;;;5132479;28;19931;-83
2022/11/15 09:41:50;;;;;;;;;;;;;;;;;;5136301;27;19939;-85
2022/11/15 09:44:36;;;;;;;;;;;;;;;;;;5122727;28;19924;-82
2022/11/15 09:47:12;;;;;;;;;;;;;;;;;;5112763;28;19966;-80
2022/11/15 09:49:39;;;;;;;;;;;;;;;;;;5112426;28;19908;-82
2022/11/15 09:52:08;;;;;;;;;;;;;;;;;;5112384;28;19950;-77
2022/11/15 09:54:36;;;;;;;;;;;;;;;;;;5114038;28;19979;-81
2022/11/15 09:57:05;;;;;;;;;;;;;;;;;;5127036;27;19924;-76
2022/11/15 09:59:44;;;;;;;;;;;;;;;;;;5137091;27;19935;-79
2022/11/15 10:02:17;;;;;;;;;;;;;;;;;;5135165;27;19963;-77
2022/11/15 10:04:43;;;;;;;;;;;;;;;;;;5132012;27;19912;-81
2022/11/15 10:07:15;;;;;;;;;;;;;;;;;;5138393;27;19912;-75
2022/11/15 10:09:45;;;;;;;;;;;;;;;;;;5117798;27;19931;-77
2022/11/15 10:12:13;;;;;;;;;;;;;;;;;;5135783;27;19919;-78
2022/11/15 10:14:40;;;;;;;;;;;;;;;;;;5138117;27;19912;-77
2022/11/15 10:17:28;;;;;;;;;;;;;;;;;;5137706;27;19930;-76
2022/11/15 10:19:58;;;;;;;;;;;;;;;;;;5137980;27;19924;-78
2022/11/15 10:22:28;;;;;;;;;;;;;;;;;;5137734;27;19912;-77
2022/11/15 10:25:01;;;;;;;;;;;;;;;;;;5139372;27;19923;-76
2022/11/15 10:27:28;;;;;;;;;;;;;;;;;;5141192;27;19912;-77
2022/11/15 10:29:54;;;;;;;;;;;;;;;;;;5141432;27;19912;-77
2022/11/15 10:32:21;;;;;;;;;;;;;;;;;;5140207;27;19911;-76
2022/11/15 10:34:49;;;;;;;;;;;;;;;;;;5139630;27;20256;-76
2022/11/15 10:37:15;;;;;;;;;;;;;;;;;;5138961;28;19946;-76
2022/11/15 10:39:43;;;;;;;;;;;;;;;;;;5135768;27;19960;-76
2022/11/15 10:42:17;;;;;;;;;;;;;;;;;;5132432;27;19931;-77
2022/11/15 10:44:44;;;;;;;;;;;;;;;;;;5118007;28;19920;-77
2022/11/15 10:47:26;;;;;;;;;;;;;;;;;;5123992;27;19932;-78
2022/11/15 10:50:00;;;;;;;;;;;;;;;;;;5116422;28;19948;-78
2022/11/15 10:52:27;;;;;;;;;;;;;;;;;;5118912;28;19912;-78
2022/11/15 10:54:56;;;;;;;;;;;;;;;;;;5120845;28;19951;-77
2022/11/15 10:57:24;;;;;;;;;;;;;;;;;;5116884;28;20132;-77
2022/11/15 10:59:53;;;;;;;;;;;;;;;;;;5120697;28;19928;-78
2022/11/15 11:02:30;;;;;;;;;;;;;;;;;;5136127;27;19912;-77
2022/11/15 11:04:56;;;;;;;;;;;;;;;;;;5126402;28;19920;-79
2022/11/15 11:07:29;;;;;;;;;;;;;;;;;;5129539;28;19915;-79
2022/11/15 11:10:01;;;;;;;;;;;;;;;;;;5126127;27;19919;-76
2022/11/15 11:12:29;;;;;;;;;;;;;;;;;;5122097;28;19912;-77
2022/11/15 11:15:06;;;;;;;;;;;;;;;;;;5136806;27;19923;-78
2022/11/15 11:17:37;;;;;;;;;;;;;;;;;;5136406;27;20060;-75
2022/11/15 11:20:07;;;;;;;;;;;;;;;;;;5137342;27;19912;-77
2022/11/15 11:22:38;;;;;;;;;;;;;;;;;;5137958;27;19923;-77
2022/11/15 11:25:12;;;;;;;;;;;;;;;;;;5138081;27;19923;-77
2022/11/15 11:27:43;;;;;;;;;;;;;;;;;;5139562;27;19946;-77
2022/11/15 11:30:11;;;;;;;;;;;;;;;;;;5137562;27;19935;-77
2022/11/15 11:32:47;;;;;;;;;;;;;;;;;;5136260;27;19912;-80
2022/11/15 11:35:15;;;;;;;;;;;;;;;;;;5131341;27;19912;-79
2022/11/15 11:37:47;;;;;;;;;;;;;;;;;;5132011;28;19993;-78
2022/11/15 11:40:19;;;;;;;;;;;;;;;;;;5133491;28;19928;-84
2022/11/15 11:42:53;;;;;;;;;;;;;;;;;;5133597;28;19924;-81
2022/11/15 11:45:23;;;;;;;;;;;;;;;;;;5131753;28;19961;-80
2022/11/15 11:47:52;;;;;;;;;;;;;;;;;;5135477;27;19924;-76
2022/11/15 11:50:19;;;;;;;;;;;;;;;;;;5136501;27;19923;-79
2022/11/15 11:52:51;;;;;;;;;;;;;;;;;;5125541;28;19969;-78
2022/11/15 11:55:22;;;;;;;;;;;;;;;;;;5126140;27;19912;-76
2022/11/15 11:57:51;;;;;;;;;;;;;;;;;;5129181;27;19928;-79
2022/11/15 12:00:19;;;;;;;;;;;;;;;;;;5127760;28;19927;-78
2022/11/15 12:02:48;;;;;;;;;;;;;;;;;;5127351;27;19934;-77
2022/11/15 12:05:19;;;;;;;;;;;;;;;;;;5136897;27;19967;-77
2022/11/15 12:07:46;;;;;;;;;;;;;;;;;;5133323;27;20042;-77
2022/11/15 12:10:17;;;;;;;;;;;;;;;;;;5119916;27;19911;-77
2022/11/15 12:12:48;;;;;;;;;;;;;;;;;;5117165;28;19928;-77
2022/11/15 12:15:16;;;;;;;;;;;;;;;;;;5135545;27;19946;-76
2022/11/15 12:17:43;;;;;;;;;;;;;;;;;;5132432;27;19924;-76
2022/11/15 12:20:16;;;;;;;;;;;;;;;;;;5124749;28;19959;-80
2022/11/15 12:22:44;;;;;;;;;;;;;;;;;;5120866;28;19934;-81
2022/11/15 12:25:16;;;;;;;;;;;;;;;;;;5118905;28;20683;-80
2022/11/15 12:27:45;;;;;;;;;;;;;;;;;;5119990;28;19923;-81
2022/11/15 12:30:14;;;;;;;;;;;;;;;;;;5107415;28;20347;-79
2022/11/15 12:32:49;;;;;;;;;;;;;;;;;;5114541;28;20029;-81
2022/11/15 12:35:22;;;;;;;;;;;;;;;;;;5118165;28;20010;-78
2022/11/15 12:37:50;;;;;;;;;;;;;;;;;;5119523;28;19976;-81
2022/11/15 12:40:21;;;;;;;;;;;;;;;;;;5114697;28;19924;-82
2022/11/15 12:42:59;;;;;;;;;;;;;;;;;;5109653;28;19923;-80
2022/11/15 12:45:28;;;;;;;;;;;;;;;;;;5108429;28;19924;-82
2022/11/15 12:47:57;;;;;;;;;;;;;;;;;;5112420;28;19924;-81
2022/11/15 12:50:38;;;;;;;;;;;;;;;;;;5118399;28;19928;-80
2022/11/15 12:53:27;;;;;;;;;;;;;;;;;;5120126;28;19924;-79
2022/11/15 12:56:08;;;;;;;;;;;;;;;;;;5119037;28;19935;-82
2022/11/15 12:58:41;;;;;;;;;;;;;;;;;;5119406;28;20470;-81
2022/11/15 13:01:10;;;;;;;;;;;;;;;;;;5117788;28;19992;-82
2022/11/15 13:03:56;;;;;;;;;;;;;;;;;;5112753;28;19924;-80
2022/11/15 13:06:38;;;;;;;;;;;;;;;;;;5121076;28;19927;-81
2022/11/15 13:09:27;;;;;;;;;;;;;;;;;;5113162;28;19930;-80
2022/11/15 13:11:53;;;;;;;;;;;;;;;;;;5111853;28;19924;-80
2022/11/15 13:14:39;;;;;;;;;;;;;;;;;;5111775;28;19924;-78
2022/11/15 13:17:17;;;;;;;;;;;;;;;;;;5106789;28;19924;-80
2022/11/15 13:19:43;;;;;;;;;;;;;;;;;;5116774;28;19924;-80
2022/11/15 13:24:54;;;;;;;;;;;;;;;;;;5117620;28;19942;-81
2022/11/15 13:27:24;;;;;;;;;;;;;;;;;;5117597;28;20405;-80
2022/11/15 13:29:50;;;;;;;;;;;;;;;;;;5118512;28;19928;-79
2022/11/15 13:32:18;;;;;;;;;;;;;;;;;;5119094;28;19924;-82
2022/11/15 13:34:47;;;;;;;;;;;;;;;;;;5120153;28;19924;-81
2022/11/15 13:37:28;;;;;;;;;;;;;;;;;;5118460;28;20015;-81
2022/11/15 13:39:54;;;;;;;;;;;;;;;;;;5118686;28;19956;-81
2022/11/15 13:42:21;;;;;;;;;;;;;;;;;;5117763;28;19936;-80
2022/11/15 13:44:56;;;;;;;;;;;;;;;;;;5119360;28;19923;-83
2022/11/15 13:47:26;;;;;;;;;;;;;;;;;;5120022;28;19974;-80
2022/11/15 13:49:53;;;;;;;;;;;;;;;;;;5119065;28;19947;-81
2022/11/15 13:52:19;;;;;;;;;;;;;;;;;;5119039;28;19923;-81
2022/11/15 13:54:48;;;;;;;;;;;;;;;;;;5119883;28;19955;-78
2022/11/15 13:57:17;;;;;;;;;;;;;;;;;;5119995;28;19927;-82
2022/11/15 13:59:48;;;;;;;;;;;;;;;;;;5120541;28;19948;-79
2022/11/15 14:02:16;;;;;;;;;;;;;;;;;;5125284;28;20374;-84
2022/11/15 14:04:48;;;;;;;;;;;;;;;;;;5122625;28;19923;-80
2022/11/15 14:07:17;;;;;;;;;;;;;;;;;;5122025;28;20536;-80
2022/11/15 14:09:45;;;;;;;;;;;;;;;;;;5121547;28;19985;-79
2022/11/15 14:12:35;;;;;;;;;;;;;;;;;;5123528;28;19924;-79
2022/11/15 14:15:03;;;;;;;;;;;;;;;;;;5101060;28;19924;-81
2022/11/15 14:17:37;;;;;;;;;;;;;;;;;;5122280;28;19924;-79
2022/11/15 14:20:20;;;;;;;;;;;;;;;;;;5121699;28;19952;-81
2022/11/15 14:22:52;;;;;;;;;;;;;;;;;;5124117;28;19924;-81
2022/11/15 14:25:19;;;;;;;;;;;;;;;;;;5124363;28;19979;-79
2022/11/15 14:28:06;;;;;;;;;;;;;;;;;;5123480;28;19974;-81
2022/11/15 14:30:33;;;;;;;;;;;;;;;;;;5124026;28;19924;-79
2022/11/15 14:32:59;;;;;;;;;;;;;;;;;;5125769;28;19924;-82
2022/11/15 14:35:27;;;;;;;;;;;;;;;;;;5126885;28;20001;-85
2022/11/15 14:37:54;;;;;;;;;;;;;;;;;;5102695;28;20014;-81
2022/11/15 14:40:23;;;;;;;;;;;;;;;;;;5115716;28;19923;-78
2022/11/15 14:42:50;;;;;;;;;;;;;;;;;;5131425;28;19924;-80
2022/11/15 14:45:18;;;;;;;;;;;;;;;;;;5130738;28;20286;-79
2022/11/15 14:47:44;;;;;;;;;;;;;;;;;;5131182;28;19924;-80
2022/11/15 14:50:14;;;;;;;;;;;;;;;;;;5132189;28;19967;-82
2022/11/15 14:52:43;;;;;;;;;;;;;;;;;;5131546;28;19965;-77
2022/11/15 14:55:15;;;;;;;;;;;;;;;;;;5130784;28;19945;-78
2022/11/15 14:57:41;;;;;;;;;;;;;;;;;;5133752;28;19970;-78
2022/11/15 15:00:09;;;;;;;;;;;;;;;;;;5130727;28;19951;-78
2022/11/15 15:02:37;;;;;;;;;;;;;;;;;;5129510;28;20626;-79
2022/11/15 15:05:13;;;;;;;;;;;;;;;;;;5113502;28;20397;-78
2022/11/15 15:07:39;;;;;;;;;;;;;;;;;;5130821;28;19927;-77
2022/11/15 15:10:08;;;;;;;;;;;;;;;;;;5122441;27;19967;-80
2022/11/15 15:12:34;;;;;;;;;;;;;;;;;;5141869;27;19977;-80
2022/11/15 15:15:00;;;;;;;;;;;;;;;;;;5146489;27;19939;-77
2022/11/15 15:17:27;;;;;;;;;;;;;;;;;;5140086;27;20156;-78
2022/11/15 15:19:56;;;;;;;;;;;;;;;;;;5139160;27;19930;-79
2022/11/15 15:22:31;;;;;;;;;;;;;;;;;;5128696;28;19932;-79
2022/11/15 15:24:58;;;;;;;;;;;;;;;;;;5116200;28;20044;-78
2022/11/15 15:27:25;;;;;;;;;;;;;;;;;;5119087;28;19924;-78
2022/11/15 15:29:52;;;;;;;;;;;;;;;;;;5124315;27;20018;-80
2022/11/15 15:32:19;;;;;;;;;;;;;;;;;;5120008;28;19935;-82
2022/11/15 15:34:45;;;;;;;;;;;;;;;;;;5120804;28;19924;-80
2022/11/15 15:37:23;;;;;;;;;;;;;;;;;;5120188;28;19959;-81
2022/11/15 15:39:50;;;;;;;;;;;;;;;;;;5120669;28;20089;-80
2022/11/15 15:42:16;;;;;;;;;;;;;;;;;;5119819;28;20011;-79
2022/11/15 15:44:44;;;;;;;;;;;;;;;;;;5119873;28;19945;-81
2022/11/15 15:47:12;;;;;;;;;;;;;;;;;;5119610;28;19970;-81
2022/11/15 15:49:39;;;;;;;;;;;;;;;;;;5122621;28;19980;-77
2022/11/15 15:52:05;;;;;;;;;;;;;;;;;;5122088;28;19942;-82
2022/11/15 15:54:32;;;;;;;;;;;;;;;;;;5120106;28;19992;-81
2022/11/15 15:56:58;;;;;;;;;;;;;;;;;;5120019;28;19924;-81
2022/11/15 15:59:25;;;;;;;;;;;;;;;;;;5121001;28;19995;-82
2022/11/15 16:01:53;;;;;;;;;;;;;;;;;;5117106;28;19932;-82
2022/11/15 16:04:19;;;;;;;;;;;;;;;;;;5116777;28;19923;-80
2022/11/15 16:06:46;;;;;;;;;;;;;;;;;;5118507;28;20022;-82
2022/11/15 16:09:14;;;;;;;;;;;;;;;;;;5117750;28;20361;-82
2022/11/15 16:11:41;;;;;;;;;;;;;;;;;;5118998;28;19963;-82
2022/11/15 16:14:08;;;;;;;;;;;;;;;;;;5121762;28;19934;-80
2022/11/15 16:16:35;;;;;;;;;;;;;;;;;;5130481;27;19992;-82
2022/11/15 16:19:03;;;;;;;;;;;;;;;;;;5120629;28;20291;-82
2022/11/15 16:21:29;;;;;;;;;;;;;;;;;;5119307;28;19994;-82
2022/11/15 16:23:56;;;;;;;;;;;;;;;;;;5117989;28;20057;-80
2022/11/15 16:26:24;;;;;;;;;;;;;;;;;;5125418;27;19963;-80
2022/11/15 16:28:51;;;;;;;;;;;;;;;;;;5127147;27;19970;-81
2022/11/15 16:31:19;;;;;;;;;;;;;;;;;;5118755;28;19935;-82
2022/11/15 16:33:46;;;;;;;;;;;;;;;;;;5118606;28;20271;-81
2022/11/15 16:36:20;;;;;;;;;;;;;;;;;;5119421;28;19924;-81
2022/11/15 16:38:46;;;;;;;;;;;;;;;;;;5118425;28;19935;-82
2022/11/15 16:41:13;;;;;;;;;;;;;;;;;;5119226;28;20027;-81
2022/11/15 16:43:39;;;;;;;;;;;;;;;;;;5125529;28;19950;-81
2022/11/15 16:46:07;;;;;;;;;;;;;;;;;;5127557;28;19934;-78
2022/11/15 16:48:34;;;;;;;;;;;;;;;;;;5129015;28;19923;-82
2022/11/15 16:51:03;;;;;;;;;;;;;;;;;;5131220;28;19951;-78
2022/11/15 16:53:31;;;;;;;;;;;;;;;;;;5131325;28;19951;-81
2022/11/15 16:55:58;;;;;;;;;;;;;;;;;;5114776;27;19931;-80
2022/11/15 16:58:24;;;;;;;;;;;;;;;;;;5148460;27;19931;-83
2022/11/15 17:00:52;;;;;;;;;;;;;;;;;;5144319;27;19972;-80
2022/11/15 17:03:19;;;;;;;;;;;;;;;;;;5136952;27;19987;-82
2022/11/15 17:05:46;;;;;;;;;;;;;;;;;;5110907;27;19935;-80
2022/11/15 17:08:12;;;;;;;;;;;;;;;;;;5095666;27;20027;-80